Georgetown, TX (78626)

11:08 AM CDT on September 30, 2014 (GMT -0500)
River Ridge III | Change Station
CLOSE
Current Station
Personal Weather Station
Location: Georgetown, TX
Elevation: 807 ft
Nearby Weather Stations

Elev 807 ft 30.62 °N, 97.71 °W | Updated 7 minutes ago

Clear
Clear
82.8 °F
Feels Like 86 °F
N
1.0
Wind Variable Wind from WNW
Gusts 0.0 mph

Today
High -- | Low -- °F
--% Chance of Precip.
Yesterday
High -- | Low -- °F
Precip. -- in
7:23 AM 7:17 PM
Waxing Crescent, 38% visible
Pressure 29.91 in
Visibility 10.0 miles
Clouds Clear
Heat Index 86 °F
Dew Point 68 °F
Humidity 62%
Rainfall 0.00 in
Snow Depth Not available.
UV 5 out of 12
Pollen 8.00 out of 12
Ozone Good
PM2.5 Moderate
Flu Activity Not available.
METAR KGTU 301553Z 00000KT 10SM CLR 27/18 A2991

More Conditions Fewer Conditions

Pressure 29.91 in
Visibility 10.0 miles
Clouds Clear
Heat Index 86 °F
Dew Point 68 °F
Humidity 62%
Rainfall 0.00 in
Snow Depth Not available.
UV 5 out of 12
Pollen 8.00 out of 12
Ozone Good
PM2.5 Moderate
Flu Activity Not available.
METAR KGTU 301553Z 00000KT 10SM CLR 27/18 A2991

More Conditions Fewer Conditions

10-Day Weather Forecast

Almanac

Astronomy

Sep. 30, 2014 Rise Set
Actual Time 7:23 AM CDT 7:17 PM CDT
Civil Twilight 6:59 AM CDT 7:41 PM CDT
Nautical Twilight 6:31 AM CDT 8:08 PM CDT
Astronomical Twilight 6:03 AM CDT 8:36 PM CDT
Moon 1:14 PM CDT No Moon Set
Length of Visible Light 12h 41m
Length of Day
11h 53m
Tomorrow will be 1m 49s shorter.
Waxing Crescent, 38% of the Moon is Illuminated
Today
Waxing Crescent
Oct 1
First Quarter
Oct 8
Full
Oct 15
Last Quarter
Oct 23
New

Today's Extremes

State Highs State Lows

Community

WunderPhotos

Upload Photos

1,757,675 photos uploaded!

Nearby

Air Quality

  Air Quality AQ Index Pollutant
Yesterday Good
OZONE
Yesterday Good
PM2.5
Current Moderate
PM2.5
Current Good
OZONE
Tuesday Moderate
OZONE
Tuesday Good
PM10
Wednesday Good
OZONE
Wednesday Good
PM10
Thursday Good
OZONE
Thursday Good
PM10
Friday Good
OZONE
Friday Good
PM10

Snow Depth

Station Depth Elevation
No new snow has been reported.

Earthquake Activity

City Distance Mag. Time & Date
No recent earthquake activity has been reported nearby.
Minimum magnitude displayed is 2.5.

Coastal Water Temperatures

Place Temperature
No Stations Reporting

Nearby Weather Stations